sensor_id;sensor_type;location;lat;lon;timestamp;P1;durP1;ratioP1;P2;durP2;ratioP2
56911;SDS011;42800;53.928;27.662;2024-01-15T00:01:31;5.20;;;2.65;;
56911;SDS011;42800;53.928;27.662;2024-01-15T00:03:57;4.20;;;2.38;;
56911;SDS011;42800;53.928;27.662;2024-01-15T00:06:23;3.80;;;2.63;;
56911;SDS011;42800;53.928;27.662;2024-01-15T00:08:48;3.22;;;2.78;;
56911;SDS011;42800;53.928;27.662;2024-01-15T00:11:14;2.97;;;2.60;;
56911;SDS011;42800;53.928;27.662;2024-01-15T00:13:40;3.40;;;2.55;;
56911;SDS011;42800;53.928;27.662;2024-01-15T00:16:06;5.60;;;2.85;;
56911;SDS011;42800;53.928;27.662;2024-01-15T00:18:33;4.50;;;2.55;;
56911;SDS011;42800;53.928;27.662;2024-01-15T00:20:59;6.18;;;2.80;;
56911;SDS011;42800;53.928;27.662;2024-01-15T00:23:24;5.95;;;3.38;;
56911;SDS011;42800;53.928;27.662;2024-01-15T00:25:50;3.40;;;3.10;;
56911;SDS011;42800;53.928;27.662;2024-01-15T00:28:17;3.63;;;2.58;;
56911;SDS011;42800;53.928;27.662;2024-01-15T00:30:43;4.70;;;3.17;;
56911;SDS011;42800;53.928;27.662;2024-01-15T00:33:09;5.90;;;3.47;;
56911;SDS011;42800;53.928;27.662;2024-01-15T00:35:38;3.50;;;3.10;;
56911;SDS011;42800;53.928;27.662;2024-01-15T00:38:04;5.05;;;3.05;;
56911;SDS011;42800;53.928;27.662;2024-01-15T00:40:29;2.88;;;2.55;;
56911;SDS011;42800;53.928;27.662;2024-01-15T00:42:55;4.45;;;3.50;;
56911;SDS011;42800;53.928;27.662;2024-01-15T00:45:21;3.78;;;3.35;;
56911;SDS011;42800;53.928;27.662;2024-01-15T00:47:48;7.60;;;3.95;;
56911;SDS011;42800;53.928;27.662;2024-01-15T00:50:14;5.05;;;3.45;;
56911;SDS011;42800;53.928;27.662;2024-01-15T00:52:41;4.78;;;3.50;;
56911;SDS011;42800;53.928;27.662;2024-01-15T00:55:07;4.65;;;3.47;;
56911;SDS011;42800;53.928;27.662;2024-01-15T00:57:33;4.70;;;3.35;;
56911;SDS011;42800;53.928;27.662;2024-01-15T00:59:59;5.90;;;3.80;;
56911;SDS011;42800;53.928;27.662;2024-01-15T01:02:25;6.03;;;3.38;;
56911;SDS011;42800;53.928;27.662;2024-01-15T01:04:51;4.57;;;3.90;;
56911;SDS011;42800;53.928;27.662;2024-01-15T01:07:17;5.25;;;3.42;;
56911;SDS011;42800;53.928;27.662;2024-01-15T01:09:45;4.97;;;3.78;;
56911;SDS011;42800;53.928;27.662;2024-01-15T01:12:11;7.20;;;3.45;;
56911;SDS011;42800;53.928;27.662;2024-01-15T01:14:37;6.63;;;3.92;;
56911;SDS011;42800;53.928;27.662;2024-01-15T01:17:03;4.78;;;3.58;;
56911;SDS011;42800;53.928;27.662;2024-01-15T01:19:29;4.25;;;3.35;;
56911;SDS011;42800;53.928;27.662;2024-01-15T01:21:55;3.75;;;2.95;;
56911;SDS011;42800;53.928;27.662;2024-01-15T01:24:21;4.15;;;3.58;;
56911;SDS011;42800;53.928;27.662;2024-01-15T01:26:48;7.00;;;3.58;;
56911;SDS011;42800;53.928;27.662;2024-01-15T01:29:14;5.75;;;3.47;;
56911;SDS011;42800;53.928;27.662;2024-01-15T01:31:42;4.97;;;3.10;;
56911;SDS011;42800;53.928;27.662;2024-01-15T01:34:09;5.72;;;2.92;;
56911;SDS011;42800;53.928;27.662;2024-01-15T01:36:34;4.10;;;2.90;;
56911;SDS011;42800;53.928;27.662;2024-01-15T01:39:00;5.20;;;3.85;;
56911;SDS011;42800;53.928;27.662;2024-01-15T01:41:26;4.90;;;3.50;;
56911;SDS011;42800;53.928;27.662;2024-01-15T01:43:53;3.90;;;3.40;;
56911;SDS011;42800;53.928;27.662;2024-01-15T01:46:19;7.00;;;3.83;;
56911;SDS011;42800;53.928;27.662;2024-01-15T01:48:45;5.65;;;3.67;;
56911;SDS011;42800;53.928;27.662;2024-01-15T01:51:11;4.88;;;3.38;;
56911;SDS011;42800;53.928;27.662;2024-01-15T01:53:37;7.00;;;4.20;;
56911;SDS011;42800;53.928;27.662;2024-01-15T01:56:04;8.52;;;3.80;;
56911;SDS011;42800;53.928;27.662;2024-01-15T01:58:31;6.30;;;4.45;;
56911;SDS011;42800;53.928;27.662;2024-01-15T02:00:59;7.75;;;3.78;;
56911;SDS011;42800;53.928;27.662;2024-01-15T02:03:25;6.03;;;4.00;;
56911;SDS011;42800;53.928;27.662;2024-01-15T02:05:52;6.20;;;3.58;;
56911;SDS011;42800;53.928;27.662;2024-01-15T02:08:19;4.80;;;3.58;;
56911;SDS011;42800;53.928;27.662;2024-01-15T02:10:45;10.88;;;4.35;;
56911;SDS011;42800;53.928;27.662;2024-01-15T02:13:11;4.70;;;3.90;;
56911;SDS011;42800;53.928;27.662;2024-01-15T02:15:37;8.65;;;4.57;;
56911;SDS011;42800;53.928;27.662;2024-01-15T02:18:04;10.27;;;4.95;;
56911;SDS011;42800;53.928;27.662;2024-01-15T02:20:32;7.07;;;4.85;;
56911;SDS011;42800;53.928;27.662;2024-01-15T02:23:06;9.98;;;4.68;;
56911;SDS011;42800;53.928;27.662;2024-01-15T02:25:35;8.02;;;4.88;;
56911;SDS011;42800;53.928;27.662;2024-01-15T02:28:02;9.77;;;5.15;;
56911;SDS011;42800;53.928;27.662;2024-01-15T02:30:29;6.57;;;4.40;;
56911;SDS011;42800;53.928;27.662;2024-01-15T02:32:57;7.30;;;4.45;;
56911;SDS011;42800;53.928;27.662;2024-01-15T02:35:23;12.65;;;6.10;;
56911;SDS011;42800;53.928;27.662;2024-01-15T02:37:49;14.57;;;4.93;;
56911;SDS011;42800;53.928;27.662;2024-01-15T02:40:16;10.45;;;5.60;;
56911;SDS011;42800;53.928;27.662;2024-01-15T02:42:42;8.38;;;4.88;;
56911;SDS011;42800;53.928;27.662;2024-01-15T02:45:08;13.98;;;5.35;;
56911;SDS011;42800;53.928;27.662;2024-01-15T02:47:35;8.05;;;5.18;;
56911;SDS011;42800;53.928;27.662;2024-01-15T02:50:01;11.57;;;5.72;;
56911;SDS011;42800;53.928;27.662;2024-01-15T02:52:27;6.80;;;4.85;;
56911;SDS011;42800;53.928;27.662;2024-01-15T02:54:53;7.53;;;4.45;;
56911;SDS011;42800;53.928;27.662;2024-01-15T02:57:20;7.13;;;4.50;;
56911;SDS011;42800;53.928;27.662;2024-01-15T02:59:46;7.32;;;4.45;;
56911;SDS011;42800;53.928;27.662;2024-01-15T03:02:12;7.68;;;4.85;;
56911;SDS011;42800;53.928;27.662;2024-01-15T03:04:42;10.25;;;5.68;;
56911;SDS011;42800;53.928;27.662;2024-01-15T03:07:08;8.63;;;4.90;;
56911;SDS011;42800;53.928;27.662;2024-01-15T03:09:35;9.23;;;6.28;;
56911;SDS011;42800;53.928;27.662;2024-01-15T03:12:01;7.85;;;4.97;;
56911;SDS011;42800;53.928;27.662;2024-01-15T03:14:28;8.95;;;5.78;;
56911;SDS011;42800;53.928;27.662;2024-01-15T03:16:54;7.55;;;4.95;;
56911;SDS011;42800;53.928;27.662;2024-01-15T03:19:20;8.10;;;5.55;;
56911;SDS011;42800;53.928;27.662;2024-01-15T03:21:46;8.50;;;5.90;;
56911;SDS011;42800;53.928;27.662;2024-01-15T03:24:13;11.35;;;6.65;;
56911;SDS011;42800;53.928;27.662;2024-01-15T03:26:39;7.90;;;4.82;;
56911;SDS011;42800;53.928;27.662;2024-01-15T03:29:05;7.72;;;5.38;;
56911;SDS011;42800;53.928;27.662;2024-01-15T03:31:33;9.43;;;4.88;;
56911;SDS011;42800;53.928;27.662;2024-01-15T03:33:59;8.27;;;5.90;;
56911;SDS011;42800;53.928;27.662;2024-01-15T03:36:25;7.30;;;4.70;;
56911;SDS011;42800;53.928;27.662;2024-01-15T03:38:51;10.05;;;6.03;;
56911;SDS011;42800;53.928;27.662;2024-01-15T03:41:17;7.97;;;5.47;;
56911;SDS011;42800;53.928;27.662;2024-01-15T03:43:44;7.63;;;4.68;;
56911;SDS011;42800;53.928;27.662;2024-01-15T03:46:10;8.43;;;5.60;;
56911;SDS011;42800;53.928;27.662;2024-01-15T03:48:37;9.48;;;5.07;;
56911;SDS011;42800;53.928;27.662;2024-01-15T03:51:03;7.38;;;5.18;;
56911;SDS011;42800;53.928;27.662;2024-01-15T03:53:30;6.40;;;4.30;;
56911;SDS011;42800;53.928;27.662;2024-01-15T03:55:56;6.32;;;5.28;;
56911;SDS011;42800;53.928;27.662;2024-01-15T03:58:22;8.93;;;5.20;;
56911;SDS011;42800;53.928;27.662;2024-01-15T04:00:48;10.30;;;5.38;;
56911;SDS011;42800;53.928;27.662;2024-01-15T04:03:14;10.57;;;6.18;;
56911;SDS011;42800;53.928;27.662;2024-01-15T04:05:41;9.13;;;4.93;;
56911;SDS011;42800;53.928;27.662;2024-01-15T04:08:07;8.80;;;4.47;;
56911;SDS011;42800;53.928;27.662;2024-01-15T04:10:33;8.48;;;4.97;;
56911;SDS011;42800;53.928;27.662;2024-01-15T04:12:59;12.77;;;5.43;;
56911;SDS011;42800;53.928;27.662;2024-01-15T04:15:26;7.65;;;4.78;;
56911;SDS011;42800;53.928;27.662;2024-01-15T04:17:53;9.30;;;5.10;;
56911;SDS011;42800;53.928;27.662;2024-01-15T04:20:19;11.15;;;5.32;;
56911;SDS011;42800;53.928;27.662;2024-01-15T04:22:46;9.85;;;5.35;;
56911;SDS011;42800;53.928;27.662;2024-01-15T04:25:12;10.35;;;5.38;;
56911;SDS011;42800;53.928;27.662;2024-01-15T04:27:38;7.97;;;5.28;;
56911;SDS011;42800;53.928;27.662;2024-01-15T04:30:04;8.77;;;5.03;;
56911;SDS011;42800;53.928;27.662;2024-01-15T04:32:31;9.00;;;5.53;;
56911;SDS011;42800;53.928;27.662;2024-01-15T04:34:57;8.23;;;4.53;;
56911;SDS011;42800;53.928;27.662;2024-01-15T04:37:24;12.38;;;5.32;;
56911;SDS011;42800;53.928;27.662;2024-01-15T04:39:51;13.82;;;5.82;;
56911;SDS011;42800;53.928;27.662;2024-01-15T04:42:20;6.88;;;4.90;;
56911;SDS011;42800;53.928;27.662;2024-01-15T04:44:46;11.93;;;6.28;;
56911;SDS011;42800;53.928;27.662;2024-01-15T04:47:12;18.30;;;6.68;;
56911;SDS011;42800;53.928;27.662;2024-01-15T04:49:38;8.68;;;5.85;;
56911;SDS011;42800;53.928;27.662;2024-01-15T04:52:05;11.80;;;6.72;;
56911;SDS011;42800;53.928;27.662;2024-01-15T04:54:31;12.00;;;6.03;;
56911;SDS011;42800;53.928;27.662;2024-01-15T04:56:58;12.02;;;6.30;;
56911;SDS011;42800;53.928;27.662;2024-01-15T04:59:24;15.63;;;6.25;;
56911;SDS011;42800;53.928;27.662;2024-01-15T05:01:50;10.48;;;6.38;;
56911;SDS011;42800;53.928;27.662;2024-01-15T05:04:16;16.08;;;7.00;;
56911;SDS011;42800;53.928;27.662;2024-01-15T05:06:42;10.40;;;6.70;;
56911;SDS011;42800;53.928;27.662;2024-01-15T05:09:09;12.07;;;6.47;;
56911;SDS011;42800;53.928;27.662;2024-01-15T05:11:35;13.05;;;6.35;;
56911;SDS011;42800;53.928;27.662;2024-01-15T05:14:02;13.68;;;5.00;;
56911;SDS011;42800;53.928;27.662;2024-01-15T05:16:28;5.60;;;3.88;;
56911;SDS011;42800;53.928;27.662;2024-01-15T05:18:54;6.68;;;4.15;;
56911;SDS011;42800;53.928;27.662;2024-01-15T05:21:20;8.27;;;3.65;;
56911;SDS011;42800;53.928;27.662;2024-01-15T05:23:46;6.28;;;4.03;;
56911;SDS011;42800;53.928;27.662;2024-01-15T05:26:12;5.70;;;3.60;;
56911;SDS011;42800;53.928;27.662;2024-01-15T05:28:40;6.85;;;4.32;;
56911;SDS011;42800;53.928;27.662;2024-01-15T05:31:07;7.57;;;4.35;;
56911;SDS011;42800;53.928;27.662;2024-01-15T05:33:34;11.25;;;4.80;;
56911;SDS011;42800;53.928;27.662;2024-01-15T05:36:00;11.48;;;5.20;;
56911;SDS011;42800;53.928;27.662;2024-01-15T05:38:27;11.38;;;4.50;;
56911;SDS011;42800;53.928;27.662;2024-01-15T05:40:53;7.85;;;4.65;;
56911;SDS011;42800;53.928;27.662;2024-01-15T05:43:19;11.10;;;5.45;;
56911;SDS011;42800;53.928;27.662;2024-01-15T05:45:45;11.00;;;5.85;;
56911;SDS011;42800;53.928;27.662;2024-01-15T05:48:12;7.72;;;4.93;;
56911;SDS011;42800;53.928;27.662;2024-01-15T05:50:38;8.48;;;5.75;;
56911;SDS011;42800;53.928;27.662;2024-01-15T05:53:05;9.77;;;5.68;;
56911;SDS011;42800;53.928;27.662;2024-01-15T05:55:31;8.63;;;5.60;;
56911;SDS011;42800;53.928;27.662;2024-01-15T05:57:57;10.10;;;6.10;;
56911;SDS011;42800;53.928;27.662;2024-01-15T06:00:23;11.90;;;6.88;;
56911;SDS011;42800;53.928;27.662;2024-01-15T06:02:49;12.18;;;6.47;;
56911;SDS011;42800;53.928;27.662;2024-01-15T06:05:16;14.68;;;7.38;;
56911;SDS011;42800;53.928;27.662;2024-01-15T06:07:42;12.45;;;7.07;;
56911;SDS011;42800;53.928;27.662;2024-01-15T06:10:08;13.80;;;7.25;;
56911;SDS011;42800;53.928;27.662;2024-01-15T06:12:35;13.60;;;7.88;;
56911;SDS011;42800;53.928;27.662;2024-01-15T06:15:01;13.20;;;6.88;;
56911;SDS011;42800;53.928;27.662;2024-01-15T06:17:27;11.20;;;6.82;;
56911;SDS011;42800;53.928;27.662;2024-01-15T06:19:53;18.05;;;8.63;;
56911;SDS011;42800;53.928;27.662;2024-01-15T06:22:20;15.50;;;9.25;;
56911;SDS011;42800;53.928;27.662;2024-01-15T06:24:46;14.93;;;7.72;;
56911;SDS011;42800;53.928;27.662;2024-01-15T06:27:12;19.52;;;9.52;;
56911;SDS011;42800;53.928;27.662;2024-01-15T06:29:39;30.63;;;11.00;;
56911;SDS011;42800;53.928;27.662;2024-01-15T06:32:10;21.20;;;11.35;;
56911;SDS011;42800;53.928;27.662;2024-01-15T06:34:36;33.05;;;15.73;;
56911;SDS011;42800;53.928;27.662;2024-01-15T06:37:02;47.55;;;20.67;;
56911;SDS011;42800;53.928;27.662;2024-01-15T06:39:29;59.03;;;23.52;;
56911;SDS011;42800;53.928;27.662;2024-01-15T06:41:56;48.85;;;19.75;;
56911;SDS011;42800;53.928;27.662;2024-01-15T06:44:22;43.03;;;20.33;;
56911;SDS011;42800;53.928;27.662;2024-01-15T06:46:48;26.98;;;15.82;;
56911;SDS011;42800;53.928;27.662;2024-01-15T06:49:14;24.90;;;14.13;;
56911;SDS011;42800;53.928;27.662;2024-01-15T06:51:40;25.50;;;14.32;;
56911;SDS011;42800;53.928;27.662;2024-01-15T06:54:07;21.95;;;12.07;;
56911;SDS011;42800;53.928;27.662;2024-01-15T06:56:35;22.73;;;12.60;;
56911;SDS011;42800;53.928;27.662;2024-01-15T06:59:01;26.75;;;14.48;;
56911;SDS011;42800;53.928;27.662;2024-01-15T07:01:28;22.55;;;14.63;;
56911;SDS011;42800;53.928;27.662;2024-01-15T07:03:54;27.08;;;15.00;;
56911;SDS011;42800;53.928;27.662;2024-01-15T07:06:20;24.58;;;13.90;;
56911;SDS011;42800;53.928;27.662;2024-01-15T07:08:47;27.88;;;16.02;;
56911;SDS011;42800;53.928;27.662;2024-01-15T07:11:13;23.70;;;14.48;;
56911;SDS011;42800;53.928;27.662;2024-01-15T07:13:40;19.30;;;9.95;;
56911;SDS011;42800;53.928;27.662;2024-01-15T07:16:06;20.33;;;10.35;;
56911;SDS011;42800;53.928;27.662;2024-01-15T07:18:32;17.13;;;9.18;;
56911;SDS011;42800;53.928;27.662;2024-01-15T07:20:58;20.15;;;11.40;;
56911;SDS011;42800;53.928;27.662;2024-01-15T07:23:26;24.67;;;11.50;;
56911;SDS011;42800;53.928;27.662;2024-01-15T07:25:52;24.83;;;13.20;;
56911;SDS011;42800;53.928;27.662;2024-01-15T07:28:19;27.98;;;14.18;;
56911;SDS011;42800;53.928;27.662;2024-01-15T07:30:46;20.77;;;12.43;;
56911;SDS011;42800;53.928;27.662;2024-01-15T07:33:12;24.00;;;13.30;;
56911;SDS011;42800;53.928;27.662;2024-01-15T07:35:38;15.02;;;8.88;;
56911;SDS011;42800;53.928;27.662;2024-01-15T07:38:04;20.85;;;11.07;;
56911;SDS011;42800;53.928;27.662;2024-01-15T07:40:31;20.98;;;10.85;;
56911;SDS011;42800;53.928;27.662;2024-01-15T07:42:57;16.52;;;8.77;;
56911;SDS011;42800;53.928;27.662;2024-01-15T07:45:23;15.60;;;9.93;;
56911;SDS011;42800;53.928;27.662;2024-01-15T07:47:50;20.73;;;12.30;;
56911;SDS011;42800;53.928;27.662;2024-01-15T07:50:16;21.77;;;12.02;;
56911;SDS011;42800;53.928;27.662;2024-01-15T07:52:43;22.30;;;12.93;;
56911;SDS011;42800;53.928;27.662;2024-01-15T07:55:09;20.50;;;11.82;;
56911;SDS011;42800;53.928;27.662;2024-01-15T07:57:36;27.45;;;12.40;;
56911;SDS011;42800;53.928;27.662;2024-01-15T08:00:03;22.80;;;11.93;;
56911;SDS011;42800;53.928;27.662;2024-01-15T08:02:30;27.10;;;13.02;;
56911;SDS011;42800;53.928;27.662;2024-01-15T08:04:58;24.02;;;13.23;;
56911;SDS011;42800;53.928;27.662;2024-01-15T08:07:24;26.92;;;14.30;;
56911;SDS011;42800;53.928;27.662;2024-01-15T08:09:51;19.83;;;12.02;;
56911;SDS011;42800;53.928;27.662;2024-01-15T08:12:17;25.95;;;14.70;;
56911;SDS011;42800;53.928;27.662;2024-01-15T08:14:44;28.00;;;14.32;;
56911;SDS011;42800;53.928;27.662;2024-01-15T08:17:10;25.27;;;14.70;;
56911;SDS011;42800;53.928;27.662;2024-01-15T08:19:36;34.67;;;17.98;;
56911;SDS011;42800;53.928;27.662;2024-01-15T08:22:04;32.33;;;17.55;;
56911;SDS011;42800;53.928;27.662;2024-01-15T08:24:31;37.80;;;17.42;;
56911;SDS011;42800;53.928;27.662;2024-01-15T08:26:57;24.38;;;15.05;;
56911;SDS011;42800;53.928;27.662;2024-01-15T08:29:23;38.72;;;18.13;;
56911;SDS011;42800;53.928;27.662;2024-01-15T08:31:50;27.90;;;15.20;;
56911;SDS011;42800;53.928;27.662;2024-01-15T08:34:16;30.55;;;15.93;;
56911;SDS011;42800;53.928;27.662;2024-01-15T08:36:42;30.05;;;16.23;;
56911;SDS011;42800;53.928;27.662;2024-01-15T08:39:09;24.15;;;12.23;;
56911;SDS011;42800;53.928;27.662;2024-01-15T08:41:35;21.58;;;12.77;;
56911;SDS011;42800;53.928;27.662;2024-01-15T08:44:01;23.35;;;13.63;;
56911;SDS011;42800;53.928;27.662;2024-01-15T08:46:28;26.65;;;13.20;;
56911;SDS011;42800;53.928;27.662;2024-01-15T08:48:54;28.67;;;15.05;;
56911;SDS011;42800;53.928;27.662;2024-01-15T08:51:20;32.50;;;18.30;;
56911;SDS011;42800;53.928;27.662;2024-01-15T08:53:47;34.58;;;15.70;;
56911;SDS011;42800;53.928;27.662;2024-01-15T08:56:14;21.73;;;13.98;;
56911;SDS011;42800;53.928;27.662;2024-01-15T08:58:40;24.90;;;13.93;;
56911;SDS011;42800;53.928;27.662;2024-01-15T09:01:06;21.27;;;11.20;;
56911;SDS011;42800;53.928;27.662;2024-01-15T09:03:32;37.55;;;18.05;;
56911;SDS011;42800;53.928;27.662;2024-01-15T09:05:59;33.88;;;18.75;;
56911;SDS011;42800;53.928;27.662;2024-01-15T09:08:26;37.75;;;20.60;;
56911;SDS011;42800;53.928;27.662;2024-01-15T09:10:52;31.77;;;17.40;;
56911;SDS011;42800;53.928;27.662;2024-01-15T09:13:19;43.80;;;20.65;;
56911;SDS011;42800;53.928;27.662;2024-01-15T09:15:46;46.17;;;22.60;;
56911;SDS011;42800;53.928;27.662;2024-01-15T09:18:11;51.83;;;23.88;;
56911;SDS011;42800;53.928;27.662;2024-01-15T09:20:37;40.05;;;20.00;;
56911;SDS011;42800;53.928;27.662;2024-01-15T09:23:04;41.97;;;21.77;;
56911;SDS011;42800;53.928;27.662;2024-01-15T09:25:29;50.90;;;23.67;;
56911;SDS011;42800;53.928;27.662;2024-01-15T09:27:55;31.45;;;18.00;;
56911;SDS011;42800;53.928;27.662;2024-01-15T09:30:22;37.63;;;20.05;;
56911;SDS011;42800;53.928;27.662;2024-01-15T09:32:48;43.08;;;21.50;;
56911;SDS011;42800;53.928;27.662;2024-01-15T09:35:14;23.80;;;16.00;;
56911;SDS011;42800;53.928;27.662;2024-01-15T09:37:40;34.83;;;18.17;;
56911;SDS011;42800;53.928;27.662;2024-01-15T09:40:08;28.42;;;15.10;;
56911;SDS011;42800;53.928;27.662;2024-01-15T09:42:38;25.23;;;12.10;;
56911;SDS011;42800;53.928;27.662;2024-01-15T09:45:05;19.20;;;10.40;;
56911;SDS011;42800;53.928;27.662;2024-01-15T09:47:33;19.33;;;10.43;;
56911;SDS011;42800;53.928;27.662;2024-01-15T09:49:59;23.80;;;11.13;;
56911;SDS011;42800;53.928;27.662;2024-01-15T09:52:25;25.08;;;11.60;;
56911;SDS011;42800;53.928;27.662;2024-01-15T09:54:52;21.20;;;11.55;;
56911;SDS011;42800;53.928;27.662;2024-01-15T09:57:18;16.25;;;9.40;;
56911;SDS011;42800;53.928;27.662;2024-01-15T09:59:44;17.95;;;10.38;;
56911;SDS011;42800;53.928;27.662;2024-01-15T10:02:11;22.80;;;13.75;;
56911;SDS011;42800;53.928;27.662;2024-01-15T10:04:43;23.50;;;13.52;;
56911;SDS011;42800;53.928;27.662;2024-01-15T10:07:09;27.27;;;12.60;;
56911;SDS011;42800;53.928;27.662;2024-01-15T10:09:40;22.13;;;11.48;;
56911;SDS011;42800;53.928;27.662;2024-01-15T10:12:06;29.13;;;13.27;;
56911;SDS011;42800;53.928;27.662;2024-01-15T10:14:33;19.17;;;9.00;;
56911;SDS011;42800;53.928;27.662;2024-01-15T10:16:59;24.60;;;12.30;;
56911;SDS011;42800;53.928;27.662;2024-01-15T10:19:25;18.52;;;8.48;;
56911;SDS011;42800;53.928;27.662;2024-01-15T10:21:51;17.48;;;9.40;;
56911;SDS011;42800;53.928;27.662;2024-01-15T10:24:17;17.52;;;9.63;;
56911;SDS011;42800;53.928;27.662;2024-01-15T10:26:43;15.95;;;10.05;;
56911;SDS011;42800;53.928;27.662;2024-01-15T10:29:09;26.58;;;12.55;;
56911;SDS011;42800;53.928;27.662;2024-01-15T10:31:36;21.90;;;12.90;;
56911;SDS011;42800;53.928;27.662;2024-01-15T10:34:10;26.10;;;13.73;;
56911;SDS011;42800;53.928;27.662;2024-01-15T10:36:39;27.17;;;14.05;;
56911;SDS011;42800;53.928;27.662;2024-01-15T10:39:06;39.95;;;19.77;;
56911;SDS011;42800;53.928;27.662;2024-01-15T10:41:33;38.08;;;20.05;;
56911;SDS011;42800;53.928;27.662;2024-01-15T10:43:58;36.55;;;15.20;;
56911;SDS011;42800;53.928;27.662;2024-01-15T10:46:25;37.30;;;18.20;;
56911;SDS011;42800;53.928;27.662;2024-01-15T10:48:51;46.13;;;22.77;;
56911;SDS011;42800;53.928;27.662;2024-01-15T10:51:17;45.03;;;23.98;;
56911;SDS011;42800;53.928;27.662;2024-01-15T10:53:44;46.65;;;25.85;;
56911;SDS011;42800;53.928;27.662;2024-01-15T10:56:12;44.78;;;20.58;;
56911;SDS011;42800;53.928;27.662;2024-01-15T10:58:39;43.00;;;23.88;;
56911;SDS011;42800;53.928;27.662;2024-01-15T11:01:05;43.38;;;23.45;;
56911;SDS011;42800;53.928;27.662;2024-01-15T11:03:32;29.35;;;15.20;;
56911;SDS011;42800;53.928;27.662;2024-01-15T11:05:59;26.58;;;15.10;;
56911;SDS011;42800;53.928;27.662;2024-01-15T11:08:25;38.33;;;20.00;;
56911;SDS011;42800;53.928;27.662;2024-01-15T11:10:51;40.58;;;20.38;;
56911;SDS011;42800;53.928;27.662;2024-01-15T11:13:20;47.83;;;23.33;;
56911;SDS011;42800;53.928;27.662;2024-01-15T11:16:00;45.15;;;21.33;;
56911;SDS011;42800;53.928;27.662;2024-01-15T11:18:27;28.95;;;17.52;;
56911;SDS011;42800;53.928;27.662;2024-01-15T11:23:46;44.28;;;22.73;;
56911;SDS011;42800;53.928;27.662;2024-01-15T11:28:58;34.53;;;19.65;;
56911;SDS011;42800;53.928;27.662;2024-01-15T11:31:28;38.85;;;20.63;;
56911;SDS011;42800;53.928;27.662;2024-01-15T11:33:55;31.15;;;15.30;;
56911;SDS011;42800;53.928;27.662;2024-01-15T11:36:21;32.13;;;17.63;;
56911;SDS011;42800;53.928;27.662;2024-01-15T11:38:47;33.20;;;18.75;;
56911;SDS011;42800;53.928;27.662;2024-01-15T11:41:13;27.63;;;15.65;;
56911;SDS011;42800;53.928;27.662;2024-01-15T11:43:40;29.77;;;16.50;;
56911;SDS011;42800;53.928;27.662;2024-01-15T11:46:07;26.52;;;15.02;;
56911;SDS011;42800;53.928;27.662;2024-01-15T11:48:42;30.10;;;14.00;;
56911;SDS011;42800;53.928;27.662;2024-01-15T11:51:10;24.63;;;13.98;;
56911;SDS011;42800;53.928;27.662;2024-01-15T11:53:40;30.83;;;17.63;;
56911;SDS011;42800;53.928;27.662;2024-01-15T11:56:11;40.83;;;20.92;;
56911;SDS011;42800;53.928;27.662;2024-01-15T11:58:40;51.42;;;28.02;;
56911;SDS011;42800;53.928;27.662;2024-01-15T12:01:06;59.58;;;27.70;;
56911;SDS011;42800;53.928;27.662;2024-01-15T12:03:32;34.78;;;19.55;;
56911;SDS011;42800;53.928;27.662;2024-01-15T12:05:59;50.25;;;24.70;;
56911;SDS011;42800;53.928;27.662;2024-01-15T12:08:26;39.80;;;21.00;;
56911;SDS011;42800;53.928;27.662;2024-01-15T12:10:52;28.30;;;16.40;;
56911;SDS011;42800;53.928;27.662;2024-01-15T12:13:19;40.05;;;21.58;;
56911;SDS011;42800;53.928;27.662;2024-01-15T12:15:46;41.08;;;16.65;;
56911;SDS011;42800;53.928;27.662;2024-01-15T12:18:14;26.98;;;16.20;;
56911;SDS011;42800;53.928;27.662;2024-01-15T12:20:42;42.30;;;23.38;;
56911;SDS011;42800;53.928;27.662;2024-01-15T12:23:08;54.60;;;26.88;;
56911;SDS011;42800;53.928;27.662;2024-01-15T12:25:35;55.65;;;26.00;;
56911;SDS011;42800;53.928;27.662;2024-01-15T12:28:02;54.05;;;27.50;;
56911;SDS011;42800;53.928;27.662;2024-01-15T12:30:29;63.25;;;27.15;;
56911;SDS011;42800;53.928;27.662;2024-01-15T12:32:56;74.25;;;31.45;;
56911;SDS011;42800;53.928;27.662;2024-01-15T12:35:24;56.60;;;25.85;;
56911;SDS011;42800;53.928;27.662;2024-01-15T12:37:51;53.65;;;25.88;;
56911;SDS011;42800;53.928;27.662;2024-01-15T12:40:18;51.95;;;21.80;;
56911;SDS011;42800;53.928;27.662;2024-01-15T12:42:45;49.65;;;25.08;;
56911;SDS011;42800;53.928;27.662;2024-01-15T12:45:11;62.80;;;27.65;;
56911;SDS011;42800;53.928;27.662;2024-01-15T12:47:38;54.22;;;25.02;;
56911;SDS011;42800;53.928;27.662;2024-01-15T12:50:06;51.75;;;26.42;;
56911;SDS011;42800;53.928;27.662;2024-01-15T12:52:33;46.03;;;24.23;;
56911;SDS011;42800;53.928;27.662;2024-01-15T12:54:59;49.47;;;24.55;;
56911;SDS011;42800;53.928;27.662;2024-01-15T12:57:25;44.60;;;23.15;;
56911;SDS011;42800;53.928;27.662;2024-01-15T12:59:51;45.42;;;22.75;;
56911;SDS011;42800;53.928;27.662;2024-01-15T13:02:17;50.42;;;24.70;;
56911;SDS011;42800;53.928;27.662;2024-01-15T13:04:43;45.58;;;22.02;;
56911;SDS011;42800;53.928;27.662;2024-01-15T13:07:09;37.97;;;20.08;;
56911;SDS011;42800;53.928;27.662;2024-01-15T13:09:36;49.95;;;24.17;;
56911;SDS011;42800;53.928;27.662;2024-01-15T13:12:02;43.97;;;23.95;;
56911;SDS011;42800;53.928;27.662;2024-01-15T13:14:28;35.03;;;18.58;;
56911;SDS011;42800;53.928;27.662;2024-01-15T13:16:54;40.55;;;21.33;;
56911;SDS011;42800;53.928;27.662;2024-01-15T13:19:21;31.38;;;18.13;;
56911;SDS011;42800;53.928;27.662;2024-01-15T13:21:47;37.30;;;16.33;;
56911;SDS011;42800;53.928;27.662;2024-01-15T13:24:14;34.08;;;15.18;;
56911;SDS011;42800;53.928;27.662;2024-01-15T13:26:40;24.42;;;13.90;;
56911;SDS011;42800;53.928;27.662;2024-01-15T13:29:06;29.33;;;15.27;;
56911;SDS011;42800;53.928;27.662;2024-01-15T13:31:32;35.95;;;17.83;;
56911;SDS011;42800;53.928;27.662;2024-01-15T13:33:59;34.22;;;17.90;;
56911;SDS011;42800;53.928;27.662;2024-01-15T13:36:25;26.70;;;16.20;;
56911;SDS011;42800;53.928;27.662;2024-01-15T13:38:51;29.90;;;14.10;;
56911;SDS011;42800;53.928;27.662;2024-01-15T13:41:18;30.67;;;15.30;;
56911;SDS011;42800;53.928;27.662;2024-01-15T13:43:45;36.42;;;16.63;;
56911;SDS011;42800;53.928;27.662;2024-01-15T13:46:11;39.20;;;19.83;;
56911;SDS011;42800;53.928;27.662;2024-01-15T13:48:37;30.58;;;15.27;;
56911;SDS011;42800;53.928;27.662;2024-01-15T13:51:03;24.50;;;13.77;;
56911;SDS011;42800;53.928;27.662;2024-01-15T13:53:29;27.45;;;13.30;;
56911;SDS011;42800;53.928;27.662;2024-01-15T13:55:55;29.48;;;14.60;;
56911;SDS011;42800;53.928;27.662;2024-01-15T13:58:20;30.30;;;16.23;;
56911;SDS011;42800;53.928;27.662;2024-01-15T14:00:47;29.85;;;15.30;;
56911;SDS011;42800;53.928;27.662;2024-01-15T14:03:14;28.50;;;13.70;;
56911;SDS011;42800;53.928;27.662;2024-01-15T14:05:40;31.00;;;17.13;;
56911;SDS011;42800;53.928;27.662;2024-01-15T14:08:06;22.92;;;12.68;;
56911;SDS011;42800;53.928;27.662;2024-01-15T14:10:32;32.53;;;16.88;;
56911;SDS011;42800;53.928;27.662;2024-01-15T14:12:59;26.00;;;15.65;;
56911;SDS011;42800;53.928;27.662;2024-01-15T14:15:25;29.73;;;15.80;;
56911;SDS011;42800;53.928;27.662;2024-01-15T14:17:53;28.88;;;15.27;;
56911;SDS011;42800;53.928;27.662;2024-01-15T14:20:19;27.05;;;15.43;;